< < Back
Terminal Aerodrome Forecast


Current Version              Previous Versions:   1  2  3  4  5  6  7  8  9  

Terminal Aerodrome Forecast

815
FTUS42 KILM 272336
TAFILM
TAF
KILM 272336Z 2800/2824 02010KT P6SM VCSH SCT015 BKN025
     FM280800 02005KT 6SM BR SCT005 BKN015
     FM281300 03010KT P6SM VCSH SCT025 BKN035
     FM281800 06010KT P6SM VCTS SCT030CB BKN050=



Latest METAR

919
SAUS70 KWBC 281500 RRD
MTRILM
METAR KILM 281453Z 06009KT 10SM BKN026 OVC048 28/20 A3014 RMK AO2 SLP207
T02780200 53013


USA.gov is the U.S. government's official web portal to all federal, state and local government web resources and services.